Time;durP1;ratioP1;P1;durP2;ratioP2;P2;SDS_P1;SDS_P2;PMS_P1;PMS_P2;Temp;Humidity;BMP_temperature;BMP_pressure;BME280_temperature;BME280_humidity;BME280_pressure;Samples;Min_cycle;Max_cycle;Signal;HPM_P1;HPM_P2
2022/12/12 00:01:29;;;;;;;9.05;5.82;;;10.20;69.70;;;;;;5044175;28;20040;-73
2022/12/12 00:03:55;;;;;;;8.35;5.93;;;10.20;69.70;;;;;;5044985;28;20037;-74
2022/12/12 00:06:21;;;;;;;8.65;5.38;;;10.20;69.70;;;;;;5045388;28;20112;-73
2022/12/12 00:08:47;;;;;;;6.68;4.80;;;10.20;69.80;;;;;;5043864;28;20476;-74
2022/12/12 00:11:14;;;;;;;9.45;5.65;;;10.20;69.80;;;;;;5042668;28;20691;-75
2022/12/12 00:13:41;;;;;;;8.68;5.38;;;10.20;69.80;;;;;;5044706;28;20396;-75
2022/12/12 00:16:08;;;;;;;6.70;5.40;;;10.20;69.80;;;;;;5027350;28;20029;-74
2022/12/12 00:18:38;;;;;;;7.07;4.82;;;10.20;69.80;;;;;;5042871;28;20029;-74
2022/12/12 00:21:07;;;;;;;8.10;5.25;;;10.20;69.80;;;;;;5038455;28;20065;-75
2022/12/12 00:23:33;;;;;;;7.38;5.10;;;10.20;69.80;;;;;;5043838;28;20037;-74
2022/12/12 00:26:03;;;;;;;9.30;5.28;;;10.20;69.90;;;;;;5026240;28;20127;-73
2022/12/12 00:28:29;;;;;;;8.95;5.40;;;10.20;69.90;;;;;;5044020;28;20120;-74
2022/12/12 00:30:55;;;;;;;6.93;4.60;;;10.20;70.00;;;;;;5042326;28;20163;-75
2022/12/12 00:33:21;;;;;;;6.63;4.53;;;10.20;70.00;;;;;;5044528;28;20112;-73
2022/12/12 00:35:52;;;;;;;9.80;4.97;;;10.20;69.90;;;;;;5040453;28;20218;-73
2022/12/12 00:38:20;;;;;;;8.95;4.72;;;10.20;69.80;;;;;;5044547;28;20419;-73
2022/12/12 00:40:46;;;;;;;7.60;4.80;;;10.20;70.00;;;;;;5044408;28;20578;-73
2022/12/12 00:43:13;;;;;;;7.00;4.55;;;10.20;70.00;;;;;;5043474;28;20149;-74
2022/12/12 00:45:39;;;;;;;7.78;4.60;;;10.20;70.10;;;;;;5040309;28;20028;-74
2022/12/12 00:48:06;;;;;;;9.57;5.25;;;10.20;70.20;;;;;;5026686;28;20033;-74
2022/12/12 00:50:33;;;;;;;6.70;4.57;;;10.20;70.30;;;;;;5027066;28;20041;-74
2022/12/12 00:52:59;;;;;;;9.68;5.40;;;10.20;70.10;;;;;;5042635;28;20466;-74
2022/12/12 00:55:26;;;;;;;8.57;5.00;;;10.20;70.20;;;;;;5027008;28;20030;-74
2022/12/12 00:57:52;;;;;;;7.10;4.63;;;10.20;70.20;;;;;;5023782;28;20044;-74
2022/12/12 01:00:19;;;;;;;8.35;4.53;;;10.20;70.20;;;;;;5025569;28;20038;-74
2022/12/12 01:02:46;;;;;;;7.45;4.97;;;10.20;70.20;;;;;;5039796;28;20071;-74
2022/12/12 01:05:14;;;;;;;7.22;4.53;;;10.20;70.40;;;;;;5042435;28;20041;-74
2022/12/12 01:07:40;;;;;;;7.43;4.40;;;10.20;70.50;;;;;;5042946;28;20043;-74
2022/12/12 01:10:07;;;;;;;9.32;4.63;;;10.20;70.50;;;;;;5042521;28;20419;-74
2022/12/12 01:12:33;;;;;;;7.35;4.50;;;10.20;70.50;;;;;;5042925;28;20038;-73
2022/12/12 01:14:59;;;;;;;7.78;4.28;;;10.20;70.40;;;;;;5043766;28;20516;-74
2022/12/12 01:17:25;;;;;;;6.72;4.78;;;10.20;70.40;;;;;;5038705;28;20475;-74
2022/12/12 01:19:52;;;;;;;6.38;4.38;;;10.20;70.60;;;;;;5025758;28;20047;-73
2022/12/12 01:22:18;;;;;;;8.48;4.50;;;10.20;70.60;;;;;;5024123;28;20380;-74
2022/12/12 01:24:44;;;;;;;7.28;4.43;;;10.20;70.60;;;;;;5043206;28;20033;-74
2022/12/12 01:27:10;;;;;;;8.90;4.60;;;10.20;70.80;;;;;;5044191;28;20538;-74
2022/12/12 01:29:36;;;;;;;6.65;4.22;;;10.20;70.50;;;;;;5043453;28;20036;-73
2022/12/12 01:32:02;;;;;;;6.85;3.92;;;10.20;70.60;;;;;;5044241;28;20098;-74
2022/12/12 01:34:27;;;;;;;6.72;4.05;;;10.20;70.60;;;;;;5047450;28;20060;-73
2022/12/12 01:36:53;;;;;;;7.72;4.32;;;10.20;70.60;;;;;;5043346;28;20079;-74
2022/12/12 01:39:19;;;;;;;7.05;4.57;;;10.20;70.50;;;;;;5044847;28;20400;-74
2022/12/12 01:41:45;;;;;;;6.40;4.05;;;10.20;70.70;;;;;;5047371;28;20497;-74
2022/12/12 01:44:42;;;;;;;6.65;4.15;;;10.30;70.90;;;;;;5047564;28;20056;-74
2022/12/12 01:47:08;;;;;;;;;;;10.20;70.80;;;;;;5031306;28;20408;-74
2022/12/12 01:49:35;;;;;;;7.53;4.28;;;10.30;70.60;;;;;;5046713;28;19912;-73
2022/12/12 01:52:12;;;;;;;5.80;3.67;;;10.30;70.80;;;;;;5046083;28;20041;-74
2022/12/12 01:54:42;;;;;;;7.13;4.00;;;10.30;70.80;;;;;;5047286;28;20399;-75
2022/12/12 01:57:14;;;;;;;7.03;4.18;;;10.20;70.80;;;;;;5030005;28;20033;-74
2022/12/12 01:59:40;;;;;;;7.38;3.97;;;10.30;71.10;;;;;;5047678;28;20526;-74
2022/12/12 02:02:07;;;;;;;6.72;4.05;;;10.30;70.90;;;;;;5046048;28;20029;-75
2022/12/12 02:04:34;;;;;;;6.10;4.05;;;10.30;70.80;;;;;;5045634;28;20139;-73
2022/12/12 02:07:02;;;;;;;8.65;4.35;;;10.30;70.90;;;;;;5043881;28;20068;-74
2022/12/12 02:09:28;;;;;;;6.35;4.03;;;10.30;70.80;;;;;;5045719;28;20032;-73
2022/12/12 02:11:55;;;;;;;5.93;3.67;;;10.30;70.90;;;;;;5046668;28;20033;-73
2022/12/12 02:14:28;;;;;;;6.50;3.63;;;10.30;70.90;;;;;;5045370;28;20037;-74
2022/12/12 02:17:00;;;;;;;6.32;3.30;;;10.30;70.80;;;;;;5045978;28;20029;-73
2022/12/12 02:20:04;;;;;;;7.63;4.28;;;10.30;70.70;;;;;;5046698;28;20025;-74
2022/12/12 02:22:49;;;;;;;6.20;3.50;;;10.30;71.00;;;;;;5047128;28;20052;-74
2022/12/12 02:25:43;;;;;;;5.97;3.47;;;10.30;71.00;;;;;;5046136;28;21208;-74
2022/12/12 02:28:23;;;;;;;6.32;3.58;;;10.30;71.00;;;;;;5062077;28;20451;-74
2022/12/12 02:31:09;;;;;;;5.88;3.72;;;10.30;70.80;;;;;;5047755;28;20454;-74
2022/12/12 02:34:06;;;;;;;7.15;3.50;;;10.30;71.10;;;;;;5057651;28;20103;-74
2022/12/12 02:36:56;;;;;;;5.20;3.65;;;10.30;71.10;;;;;;5029842;28;20034;-73
2022/12/12 02:39:48;;;;;;;5.63;3.72;;;10.40;71.20;;;;;;5034118;28;20045;-74
2022/12/12 02:42:35;;;;;;;5.45;3.38;;;10.30;71.10;;;;;;5028289;28;20084;-74
2022/12/12 02:45:16;;;;;;;8.65;3.95;;;10.40;70.90;;;;;;5024211;28;20056;-74
2022/12/12 02:47:49;;;;;;;6.38;3.33;;;10.30;71.00;;;;;;4997393;28;20085;-75
2022/12/12 02:50:23;;;;;;;6.13;3.08;;;10.30;70.80;;;;;;5009726;28;20041;-74
2022/12/12 02:52:49;;;;;;;4.93;3.58;;;10.40;70.80;;;;;;5010352;28;20042;-73
2022/12/12 02:55:16;;;;;;;5.70;3.33;;;10.40;70.90;;;;;;5009165;28;20030;-73
2022/12/12 02:57:43;;;;;;;4.78;3.08;;;10.40;70.90;;;;;;5008811;28;20033;-74
2022/12/12 03:00:13;;;;;;;5.07;3.08;;;10.40;71.10;;;;;;5009008;28;20042;-74
2022/12/12 03:09:09;;;;;;;6.20;3.50;;;10.40;71.00;;;;;;5008554;28;20420;-78
2022/12/12 03:11:47;;;;;;;4.38;3.10;;;10.40;71.00;;;;;;5007727;28;20041;-78
2022/12/12 03:14:33;;;;;;;5.28;3.13;;;10.40;71.60;;;;;;5020142;28;20033;-77
2022/12/12 03:17:04;;;;;;;4.43;3.20;;;10.40;70.80;;;;;;5045720;28;20455;-77
2022/12/12 03:19:44;;;;;;;4.10;2.67;;;10.40;70.80;;;;;;5045925;28;20060;-78
2022/12/12 03:22:26;;;;;;;5.43;2.63;;;10.40;70.50;;;;;;5046300;28;20526;-77
2022/12/12 03:25:08;;;;;;;4.80;3.17;;;10.40;70.60;;;;;;5045367;28;20769;-77
2022/12/12 03:28:02;;;;;;;5.03;3.15;;;10.40;70.50;;;;;;5061655;28;20025;-77
2022/12/12 03:30:36;;;;;;;4.28;2.67;;;10.40;70.40;;;;;;5055658;28;20408;-77
2022/12/12 03:33:15;;;;;;;4.10;2.90;;;10.40;70.60;;;;;;5027467;28;20036;-77
2022/12/12 03:35:46;;;;;;;5.57;3.55;;;10.40;70.40;;;;;;5038908;28;20466;-77
2022/12/12 03:38:22;;;;;;;4.10;2.72;;;10.40;70.50;;;;;;5045150;28;20053;-76
2022/12/12 03:40:51;;;;;;;3.85;2.60;;;10.40;70.10;;;;;;5008487;28;20044;-77
2022/12/12 03:43:23;;;;;;;3.45;2.47;;;10.40;70.30;;;;;;5044062;28;20072;-76
2022/12/12 03:46:22;;;;;;;3.72;2.58;;;10.40;70.30;;;;;;5044955;28;20025;-75
2022/12/12 03:48:56;;;;;;;5.38;2.83;;;10.40;70.50;;;;;;5044115;28;20063;-75
2022/12/12 03:51:27;;;;;;;4.38;2.60;;;10.50;70.30;;;;;;5045315;28;20775;-75
2022/12/12 03:54:16;;;;;;;4.70;2.60;;;10.50;70.10;;;;;;5045376;28;20037;-75
2022/12/12 03:56:57;;;;;;;5.55;3.17;;;10.40;70.00;;;;;;5044541;28;20082;-75
2022/12/12 03:59:37;;;;;;;3.22;2.42;;;10.50;70.20;;;;;;5053519;28;20036;-78
2022/12/12 04:02:15;;;;;;;4.00;2.50;;;10.40;70.00;;;;;;5054487;28;20029;-79
2022/12/12 04:04:54;;;;;;;3.47;2.35;;;10.50;70.10;;;;;;5044575;28;20029;-78
2022/12/12 04:07:35;;;;;;;3.30;2.45;;;10.50;70.20;;;;;;5028525;28;20048;-78
2022/12/12 04:13:25;;;;;;;4.95;2.55;;;10.50;70.20;;;;;;5046142;28;20033;-79
2022/12/12 04:16:03;;;;;;;4.55;2.47;;;10.50;70.30;;;;;;5041411;28;20060;-76
2022/12/12 04:18:46;;;;;;;3.17;2.15;;;10.50;70.70;;;;;;5039805;28;20541;-75
2022/12/12 04:24:35;;;;;;;3.63;2.17;;;10.50;71.00;;;;;;5042612;28;20048;-76
2022/12/12 04:27:03;;;;;;;3.63;2.28;;;10.60;71.20;;;;;;5044854;28;20049;-76
2022/12/12 04:30:01;;;;;;;7.85;2.85;;;10.60;71.00;;;;;;5044647;28;20158;-76
2022/12/12 04:32:36;;;;;;;2.80;2.10;;;10.60;70.70;;;;;;5073970;28;20033;-74
2022/12/12 04:35:05;;;;;;;4.53;2.47;;;10.60;70.60;;;;;;5065925;28;20029;-74
2022/12/12 04:37:56;;;;;;;3.85;2.40;;;10.60;70.60;;;;;;5067392;28;20033;-75
2022/12/12 04:40:24;;;;;;;3.78;2.42;;;10.60;70.60;;;;;;5058269;28;20055;-76
2022/12/12 04:43:05;;;;;;;2.78;2.30;;;10.60;70.50;;;;;;5054397;28;20488;-76
2022/12/12 04:45:35;;;;;;;3.85;2.17;;;10.60;70.50;;;;;;5048594;28;20037;-76
2022/12/12 04:48:05;;;;;;;2.75;2.03;;;10.60;70.60;;;;;;5049346;28;20041;-76
2022/12/12 04:50:33;;;;;;;5.68;2.38;;;10.60;71.00;;;;;;5040509;28;20042;-76
2022/12/12 04:53:03;;;;;;;3.33;2.20;;;10.60;71.10;;;;;;5009885;28;20033;-76
2022/12/12 04:55:33;;;;;;;3.67;2.47;;;10.60;71.30;;;;;;5047927;28;20029;-76
2022/12/12 04:58:02;;;;;;;5.25;2.42;;;10.60;71.70;;;;;;5049458;28;20032;-76
2022/12/12 05:00:34;;;;;;;5.45;2.33;;;10.60;71.60;;;;;;5048081;28;20075;-76
2022/12/12 05:03:18;;;;;;;5.20;2.13;;;10.60;71.90;;;;;;5049441;28;20051;-76
2022/12/12 05:05:58;;;;;;;3.53;2.30;;;10.60;71.80;;;;;;5044353;28;20112;-76
2022/12/12 05:08:28;;;;;;;4.00;2.33;;;10.60;71.70;;;;;;5030316;28;20416;-76
2022/12/12 05:10:56;;;;;;;4.20;2.30;;;10.60;71.70;;;;;;5043353;28;20538;-76
2022/12/12 05:13:28;;;;;;;4.78;2.58;;;10.70;71.90;;;;;;5048870;28;20120;-75
2022/12/12 05:15:56;;;;;;;3.08;2.10;;;10.70;71.80;;;;;;5052544;28;20053;-76
2022/12/12 05:18:23;;;;;;;3.53;2.63;;;10.70;71.70;;;;;;5054064;28;20091;-76
2022/12/12 05:20:49;;;;;;;4.53;2.42;;;10.70;71.50;;;;;;5029982;28;20458;-76
2022/12/12 05:23:15;;;;;;;6.35;2.45;;;10.70;71.60;;;;;;5044969;28;20033;-75
2022/12/12 05:25:41;;;;;;;4.60;2.38;;;10.70;71.60;;;;;;5052774;28;20025;-77
2022/12/12 05:28:07;;;;;;;3.45;2.15;;;10.70;71.60;;;;;;5053449;28;20534;-76
2022/12/12 05:30:33;;;;;;;3.20;2.20;;;10.70;71.40;;;;;;5043533;28;20048;-76
2022/12/12 05:32:59;;;;;;;3.08;1.92;;;10.70;71.60;;;;;;5052199;28;20029;-77
2022/12/12 05:35:25;;;;;;;3.45;2.30;;;10.70;71.30;;;;;;5049895;28;20116;-77
2022/12/12 05:37:51;;;;;;;3.50;2.15;;;10.70;71.50;;;;;;5051806;28;20033;-77
2022/12/12 05:40:18;;;;;;;3.75;1.95;;;10.70;71.50;;;;;;5052836;28;20064;-77
2022/12/12 05:42:44;;;;;;;3.83;2.13;;;10.70;71.30;;;;;;5047628;28;20053;-77
2022/12/12 05:45:10;;;;;;;3.33;2.13;;;10.70;71.40;;;;;;5050580;28;20131;-77
2022/12/12 05:47:37;;;;;;;3.63;2.20;;;10.70;71.30;;;;;;5044543;28;20450;-77
2022/12/12 05:50:04;;;;;;;2.53;1.92;;;10.70;71.40;;;;;;5040124;28;20040;-76
2022/12/12 05:52:30;;;;;;;1.73;1.63;;;10.70;71.20;;;;;;5044863;28;20037;-77
2022/12/12 05:54:56;;;;;;;4.07;2.30;;;10.70;71.50;;;;;;5038614;28;20040;-77
2022/12/12 05:57:22;;;;;;;2.30;2.00;;;10.70;71.50;;;;;;5044245;28;20033;-76
2022/12/12 05:59:48;;;;;;;2.47;1.85;;;10.70;71.50;;;;;;5045678;28;20037;-76
2022/12/12 06:02:15;;;;;;;2.72;1.85;;;10.70;71.40;;;;;;5046104;28;20041;-76
2022/12/12 06:04:41;;;;;;;2.25;1.83;;;10.70;71.60;;;;;;5045432;28;20489;-77
2022/12/12 06:07:08;;;;;;;1.80;1.70;;;10.80;71.40;;;;;;5038468;28;20032;-77
2022/12/12 06:09:34;;;;;;;3.83;2.10;;;10.70;71.40;;;;;;5043739;28;20036;-77
2022/12/12 06:11:59;;;;;;;2.60;1.70;;;10.70;71.30;;;;;;5043520;28;20539;-77
2022/12/12 06:14:25;;;;;;;2.35;1.90;;;10.70;71.40;;;;;;5044525;28;20060;-77
2022/12/12 06:16:52;;;;;;;4.60;2.33;;;10.70;71.40;;;;;;5028801;28;20621;-77
2022/12/12 06:19:19;;;;;;;3.22;2.08;;;10.70;71.30;;;;;;5027773;28;20047;-76
2022/12/12 06:21:45;;;;;;;2.10;1.77;;;10.80;71.50;;;;;;5044452;28;20520;-76
2022/12/12 06:24:11;;;;;;;1.92;1.60;;;10.70;71.30;;;;;;5043122;28;20037;-75
2022/12/12 06:26:37;;;;;;;1.70;1.60;;;10.70;71.30;;;;;;5028612;28;20040;-75
2022/12/12 06:29:03;;;;;;;3.33;1.80;;;10.80;71.40;;;;;;5046197;28;20028;-76
2022/12/12 06:31:29;;;;;;;2.08;1.73;;;10.80;71.40;;;;;;5028784;28;20102;-76
2022/12/12 06:33:55;;;;;;;1.55;1.30;;;10.80;71.20;;;;;;5043691;28;20082;-76
2022/12/12 06:36:23;;;;;;;2.25;1.50;;;10.80;71.30;;;;;;5012613;28;20037;-77
2022/12/12 06:38:54;;;;;;;1.85;1.75;;;10.80;71.10;;;;;;5042147;28;20087;-76
2022/12/12 06:41:22;;;;;;;2.38;1.70;;;10.80;71.10;;;;;;5045725;28;20100;-75
2022/12/12 06:43:47;;;;;;;1.77;1.58;;;10.80;71.20;;;;;;5045998;28;20073;-76
2022/12/12 06:46:16;;;;;;;1.65;1.40;;;10.80;71.10;;;;;;5044532;28;20507;-75
2022/12/12 06:48:43;;;;;;;1.95;1.52;;;10.80;71.20;;;;;;5046166;28;20171;-76
2022/12/12 06:51:12;;;;;;;1.90;1.45;;;10.80;71.20;;;;;;5045081;28;20134;-76
2022/12/12 06:53:38;;;;;;;2.38;1.30;;;10.80;71.20;;;;;;5045231;28;20029;-76
2022/12/12 06:56:08;;;;;;;3.50;1.70;;;10.80;71.20;;;;;;5046298;28;20521;-77
2022/12/12 06:58:35;;;;;;;2.75;1.80;;;10.80;71.00;;;;;;5045286;28;20043;-77
2022/12/12 07:01:02;;;;;;;2.08;1.60;;;10.80;71.00;;;;;;5046130;28;20519;-77
2022/12/12 07:03:27;;;;;;;2.95;1.63;;;10.80;71.20;;;;;;5046816;28;20088;-78
2022/12/12 07:05:53;;;;;;;1.67;1.52;;;10.80;71.00;;;;;;5045335;28;20067;-78
2022/12/12 07:08:19;;;;;;;2.83;1.70;;;10.80;70.90;;;;;;5044738;28;20086;-75
2022/12/12 07:10:45;;;;;;;1.80;1.27;;;10.80;70.90;;;;;;5043433;28;20135;-75
2022/12/12 07:13:11;;;;;;;1.55;1.38;;;10.80;70.90;;;;;;5044826;28;20048;-75
2022/12/12 07:15:45;;;;;;;2.47;1.48;;;10.80;70.60;;;;;;5044164;28;20319;-75
2022/12/12 07:18:12;;;;;;;3.10;1.90;;;10.80;70.90;;;;;;5060397;28;20102;-75
2022/12/12 07:20:40;;;;;;;1.77;1.50;;;10.90;70.80;;;;;;5046265;28;20105;-74
2022/12/12 07:23:07;;;;;;;2.78;1.92;;;10.90;70.90;;;;;;5044993;28;20090;-74
2022/12/12 07:25:37;;;;;;;1.70;1.38;;;10.90;70.80;;;;;;5063495;28;20124;-77
2022/12/12 07:28:04;;;;;;;2.85;1.80;;;10.90;70.60;;;;;;5050984;28;20063;-77
2022/12/12 07:30:30;;;;;;;2.78;1.80;;;10.90;70.80;;;;;;5056660;28;20037;-77
2022/12/12 07:32:55;;;;;;;2.67;1.77;;;10.90;70.90;;;;;;5046636;28;20037;-76
2022/12/12 07:35:22;;;;;;;1.83;1.65;;;10.90;70.90;;;;;;5043879;28;20037;-75
2022/12/12 07:37:48;;;;;;;5.13;2.13;;;10.90;70.70;;;;;;5042305;28;20033;-76
2022/12/12 07:40:14;;;;;;;3.42;2.13;;;10.90;70.80;;;;;;5046052;28;20099;-75
2022/12/12 07:42:40;;;;;;;2.22;1.75;;;10.90;70.80;;;;;;5045131;28;20454;-75
2022/12/12 07:45:07;;;;;;;2.72;2.10;;;10.90;70.60;;;;;;5044661;28;20079;-76
2022/12/12 07:47:33;;;;;;;2.63;2.15;;;10.90;70.70;;;;;;5044052;28;20541;-76
2022/12/12 07:49:59;;;;;;;4.18;2.65;;;10.90;70.70;;;;;;5044171;28;20041;-76
2022/12/12 07:52:25;;;;;;;3.80;2.60;;;10.90;70.60;;;;;;5045631;28;20556;-75
2022/12/12 07:54:50;;;;;;;2.53;2.17;;;10.90;70.60;;;;;;5042624;28;20045;-74
2022/12/12 07:57:16;;;;;;;2.78;2.35;;;10.90;71.20;;;;;;5041777;28;20049;-75
2022/12/12 07:59:42;;;;;;;3.22;2.40;;;10.90;70.60;;;;;;5045162;28;20032;-77
2022/12/12 08:02:10;;;;;;;3.00;2.20;;;10.90;70.90;;;;;;5043980;28;20030;-75
2022/12/12 08:04:36;;;;;;;4.15;2.60;;;10.90;70.70;;;;;;5043513;28;20033;-76
2022/12/12 08:07:02;;;;;;;4.13;2.80;;;10.90;70.60;;;;;;5044203;28;20043;-76
2022/12/12 08:09:28;;;;;;;2.65;2.10;;;10.90;70.70;;;;;;5044331;28;20754;-75
2022/12/12 08:11:58;;;;;;;4.18;2.63;;;10.90;70.80;;;;;;5043656;28;20029;-79
2022/12/12 08:14:25;;;;;;;3.75;2.53;;;10.90;70.80;;;;;;5044673;28;20033;-76
2022/12/12 08:16:51;;;;;;;3.65;2.90;;;10.90;71.00;;;;;;5040007;28;20515;-76
2022/12/12 08:19:17;;;;;;;2.95;2.40;;;10.90;70.80;;;;;;5043312;28;20549;-75
2022/12/12 08:21:44;;;;;;;5.47;3.33;;;10.90;70.80;;;;;;5040799;28;20455;-77
2022/12/12 08:24:15;;;;;;;5.35;2.85;;;10.90;70.80;;;;;;5042153;28;20041;-75
2022/12/12 08:26:42;;;;;;;4.18;2.80;;;10.90;70.70;;;;;;5043267;28;20454;-76
2022/12/12 08:29:10;;;;;;;3.70;2.53;;;10.90;70.80;;;;;;5043258;28;20041;-74
2022/12/12 08:31:38;;;;;;;3.72;3.00;;;10.90;70.60;;;;;;5043202;28;20105;-76
2022/12/12 08:34:04;;;;;;;4.45;3.40;;;10.90;70.70;;;;;;5023327;28;20040;-76
2022/12/12 08:36:32;;;;;;;6.00;3.20;;;10.90;70.50;;;;;;5042201;28;20489;-76
2022/12/12 08:39:04;;;;;;;3.20;2.83;;;10.90;70.60;;;;;;5039579;28;20124;-75
2022/12/12 08:41:30;;;;;;;4.10;2.80;;;10.90;70.60;;;;;;5043935;28;20118;-75
2022/12/12 08:43:56;;;;;;;6.45;3.28;;;11.00;70.60;;;;;;5039626;28;20470;-76
2022/12/12 08:46:22;;;;;;;4.50;2.65;;;10.90;70.60;;;;;;5038558;28;20040;-76
2022/12/12 08:48:48;;;;;;;5.05;3.00;;;10.90;70.50;;;;;;5046162;28;20148;-75
2022/12/12 08:51:16;;;;;;;3.92;2.63;;;10.90;70.40;;;;;;5046819;28;20033;-76
2022/12/12 08:53:46;;;;;;;3.85;2.90;;;10.90;70.40;;;;;;5025737;28;20584;-75
2022/12/12 08:56:13;;;;;;;4.75;2.88;;;10.90;70.60;;;;;;5047756;28;20037;-76
2022/12/12 08:58:39;;;;;;;4.95;2.95;;;10.90;70.40;;;;;;5047212;28;20033;-76
2022/12/12 09:01:17;;;;;;;3.80;2.90;;;10.90;70.40;;;;;;5047461;28;20040;-76
2022/12/12 09:03:44;;;;;;;3.70;2.65;;;10.90;70.40;;;;;;5047598;28;20086;-76
2022/12/12 09:06:10;;;;;;;3.95;2.80;;;10.90;70.40;;;;;;5046370;28;20511;-76
2022/12/12 09:08:37;;;;;;;2.97;2.42;;;10.90;70.40;;;;;;5044768;28;20124;-75
2022/12/12 09:11:03;;;;;;;4.22;2.50;;;10.90;70.30;;;;;;5047403;28;20037;-76
2022/12/12 09:13:30;;;;;;;4.63;2.22;;;10.90;70.20;;;;;;5048002;28;20715;-75
2022/12/12 09:15:56;;;;;;;3.17;2.50;;;10.90;70.10;;;;;;5063820;28;20029;-76
2022/12/12 09:18:22;;;;;;;4.47;2.20;;;10.90;70.30;;;;;;5047651;28;20037;-77
2022/12/12 09:20:49;;;;;;;4.05;2.63;;;11.00;70.40;;;;;;5048459;28;20170;-76
2022/12/12 09:23:16;;;;;;;4.28;2.65;;;11.00;70.40;;;;;;5046610;28;20060;-75
2022/12/12 09:25:42;;;;;;;3.33;2.50;;;11.00;70.60;;;;;;5047229;28;20033;-76
2022/12/12 09:28:09;;;;;;;3.10;2.60;;;11.00;71.40;;;;;;5048369;28;20090;-77
2022/12/12 09:30:35;;;;;;;5.30;2.70;;;11.00;70.70;;;;;;5045739;28;20461;-76
2022/12/12 09:33:01;;;;;;;3.80;2.40;;;11.10;70.80;;;;;;5047536;28;20072;-76
2022/12/12 09:35:27;;;;;;;3.00;2.30;;;11.10;70.90;;;;;;5047551;28;20037;-76
2022/12/12 09:37:53;;;;;;;3.47;2.50;;;11.10;71.60;;;;;;5028409;28;20454;-76
2022/12/12 09:40:41;;;;;;;3.58;2.70;;;11.10;70.80;;;;;;5045868;28;20062;-76
2022/12/12 09:43:16;;;;;;;3.95;2.70;;;11.10;71.00;;;;;;5041785;28;20045;-75
2022/12/12 09:45:42;;;;;;;3.97;2.20;;;11.10;71.10;;;;;;5048234;28;20029;-76
2022/12/12 09:48:11;;;;;;;5.38;2.97;;;11.10;71.00;;;;;;5045055;28;20131;-76
2022/12/12 09:50:41;;;;;;;5.32;2.80;;;11.20;71.10;;;;;;5046464;28;20116;-76
2022/12/12 09:53:13;;;;;;;4.65;3.20;;;11.20;71.00;;;;;;5047137;28;20036;-76
2022/12/12 09:56:14;;;;;;;4.55;2.47;;;11.20;71.20;;;;;;5048257;28;20377;-76
2022/12/12 09:58:50;;;;;;;3.60;2.60;;;11.20;71.10;;;;;;5045433;28;20036;-76
2022/12/12 10:01:29;;;;;;;5.88;2.97;;;11.20;71.00;;;;;;5039948;28;20044;-79
2022/12/12 10:04:14;;;;;;;3.70;2.90;;;11.20;71.00;;;;;;5041436;28;20553;-76
2022/12/12 10:06:47;;;;;;;4.88;3.03;;;11.20;71.00;;;;;;5043362;28;20029;-73
2022/12/12 10:09:21;;;;;;;6.15;3.40;;;11.30;71.00;;;;;;5043393;28;20526;-75
2022/12/12 10:11:51;;;;;;;5.37;2.93;;;11.20;70.80;;;;;;5050492;28;20159;-75
2022/12/12 10:14:49;;;;;;;5.30;3.25;;;11.30;70.90;;;;;;5064078;28;20589;-73
2022/12/12 10:17:19;;;;;;;4.90;3.28;;;11.30;70.90;;;;;;5068302;28;20032;-75
2022/12/12 10:19:50;;;;;;;7.28;3.30;;;11.30;70.80;;;;;;5073218;28;20086;-75
2022/12/12 10:22:31;;;;;;;5.13;3.30;;;11.30;70.70;;;;;;5062215;28;20037;-75
2022/12/12 10:25:07;;;;;;;6.60;3.50;;;11.30;70.70;;;;;;5047692;28;20033;-74
2022/12/12 10:27:33;;;;;;;5.88;3.67;;;11.30;70.80;;;;;;5046931;28;20075;-74
2022/12/12 10:30:09;;;;;;;5.03;3.00;;;11.30;70.70;;;;;;5048528;28;20033;-76
2022/12/12 10:33:01;;;;;;;6.20;3.58;;;11.30;70.50;;;;;;5047368;28;20064;-75
2022/12/12 10:35:37;;;;;;;5.13;3.72;;;11.30;70.60;;;;;;5045020;28;20041;-75
2022/12/12 10:38:20;;;;;;;8.45;3.65;;;11.30;70.70;;;;;;5042186;28;20048;-73
2022/12/12 10:41:01;;;;;;;7.93;3.47;;;11.30;70.90;;;;;;5045632;28;20408;-74
2022/12/12 10:43:36;;;;;;;6.97;3.95;;;11.40;71.00;;;;;;5044634;28;20507;-75
2022/12/12 10:46:23;;;;;;;7.47;3.90;;;11.40;71.10;;;;;;5045851;28;20037;-74
2022/12/12 10:48:50;;;;;;;5.07;3.33;;;11.40;71.00;;;;;;5043793;28;20048;-74
2022/12/12 10:51:20;;;;;;;5.28;3.45;;;11.40;71.20;;;;;;5046133;28;20048;-75
2022/12/12 10:53:46;;;;;;;5.88;3.53;;;11.40;71.10;;;;;;5043746;28;20030;-74
2022/12/12 10:56:24;;;;;;;5.88;3.72;;;11.40;71.20;;;;;;5045073;28;20052;-74
2022/12/12 10:58:56;;;;;;;6.15;4.20;;;11.40;71.00;;;;;;5045749;28;20474;-74
2022/12/12 11:01:36;;;;;;;7.22;4.40;;;11.40;71.00;;;;;;5045027;28;20479;-74
2022/12/12 11:04:03;;;;;;;4.63;3.80;;;11.40;70.90;;;;;;5044373;28;20411;-74
2022/12/12 11:06:49;;;;;;;7.30;3.60;;;11.50;70.80;;;;;;5045953;28;20127;-74
2022/12/12 11:09:24;;;;;;;5.85;4.45;;;11.40;70.80;;;;;;5045718;28;20111;-74
2022/12/12 11:12:01;;;;;;;7.00;3.90;;;11.50;70.70;;;;;;5020841;28;20050;-73
2022/12/12 11:14:34;;;;;;;6.28;4.18;;;11.40;70.60;;;;;;5044386;28;20380;-74
2022/12/12 11:17:00;;;;;;;6.65;4.28;;;11.50;70.60;;;;;;5044197;28;20035;-75
2022/12/12 11:19:27;;;;;;;8.23;4.32;;;11.50;70.50;;;;;;5046250;28;20020;-73
2022/12/12 11:22:01;;;;;;;5.00;3.90;;;11.50;70.60;;;;;;5043765;28;20045;-75
2022/12/12 11:24:30;;;;;;;6.07;4.22;;;11.50;70.60;;;;;;5044738;28;20066;-76
2022/12/12 11:27:01;;;;;;;6.50;3.60;;;11.50;70.70;;;;;;5041257;28;20075;-74
2022/12/12 11:29:38;;;;;;;6.15;4.35;;;11.50;70.60;;;;;;5027786;28;20044;-74
2022/12/12 11:32:14;;;;;;;5.93;3.63;;;11.50;70.70;;;;;;5044996;28;20037;-74
2022/12/12 11:34:43;;;;;;;;;;;11.50;70.70;;;;;;5045655;28;20035;-74
2022/12/12 11:37:18;;;;;;;8.02;4.47;;;11.50;70.50;;;;;;5021355;28;19999;-74
2022/12/12 11:39:47;;;;;;;6.40;4.10;;;11.50;70.40;;;;;;5040686;28;20033;-75
2022/12/12 11:42:13;;;;;;;5.70;3.97;;;11.50;70.40;;;;;;5049803;28;20044;-74
2022/12/12 11:44:40;;;;;;;5.30;3.97;;;11.50;70.30;;;;;;5050035;28;20055;-75
2022/12/12 11:47:24;;;;;;;6.70;4.63;;;11.50;70.30;;;;;;5049942;28;20029;-75
2022/12/12 11:49:53;;;;;;;8.43;4.70;;;11.50;70.10;;;;;;5049804;28;20021;-75
2022/12/12 11:52:27;;;;;;;7.55;4.53;;;11.50;70.20;;;;;;5050112;28;20053;-75
2022/12/12 11:54:53;;;;;;;6.55;4.22;;;11.50;70.30;;;;;;5045143;28;20060;-75
2022/12/12 11:57:39;;;;;;;8.68;4.10;;;11.50;70.30;;;;;;5048397;28;20478;-76
2022/12/12 12:00:13;;;;;;;6.93;4.03;;;11.50;70.30;;;;;;5050986;28;20065;-75
2022/12/12 12:02:45;;;;;;;6.03;4.30;;;11.50;70.10;;;;;;5049371;28;20029;-75
2022/12/12 12:05:35;;;;;;;5.38;4.40;;;11.50;70.20;;;;;;5048441;28;20048;-75
2022/12/12 12:08:39;;;;;;;6.18;3.97;;;11.60;70.30;;;;;;5045292;28;20033;-74
2022/12/12 12:11:32;;;;;;;5.65;4.03;;;11.60;70.20;;;;;;5030878;28;20037;-75
2022/12/12 12:14:13;;;;;;;7.57;4.00;;;11.60;70.10;;;;;;5044957;28;20450;-74
2022/12/12 12:16:51;;;;;;;5.75;3.95;;;11.50;70.00;;;;;;5042485;28;20068;-74
2022/12/12 12:19:42;;;;;;;7.43;4.20;;;11.60;70.10;;;;;;5045112;28;20045;-75
2022/12/12 12:22:29;;;;;;;6.28;4.13;;;11.60;70.20;;;;;;5048631;28;20065;-74
2022/12/12 12:25:13;;;;;;;5.25;3.75;;;11.60;70.20;;;;;;5044147;28;20029;-75
2022/12/12 12:28:03;;;;;;;7.90;3.90;;;11.60;70.10;;;;;;5049195;28;20048;-75
2022/12/12 12:30:56;;;;;;;7.57;4.00;;;11.60;70.10;;;;;;5048876;28;20542;-75
2022/12/12 12:33:42;;;;;;;5.18;3.78;;;11.60;70.10;;;;;;5049216;28;20040;-74
2022/12/12 12:36:27;;;;;;;6.22;4.00;;;11.60;70.00;;;;;;5048839;28;20120;-75
2022/12/12 12:39:09;;;;;;;5.25;4.07;;;11.60;70.20;;;;;;5043337;28;20392;-75
2022/12/12 12:42:11;;;;;;;5.80;3.55;;;11.60;70.10;;;;;;5046108;28;20032;-74
2022/12/12 12:45:01;;;;;;;7.72;4.90;;;11.50;69.80;;;;;;5048663;28;20053;-77
2022/12/12 12:47:54;;;;;;;14.68;8.80;;;11.50;69.90;;;;;;5047074;28;20032;-76
2022/12/12 12:50:30;;;;;;;15.35;11.48;;;11.40;69.40;;;;;;5047505;28;20056;-76
2022/12/12 12:53:19;;;;;;;12.63;8.90;;;11.40;69.70;;;;;;5046935;28;20033;-74
2022/12/12 12:55:49;;;;;;;10.52;7.18;;;11.20;68.50;;;;;;5049597;28;20472;-75
2022/12/12 12:58:22;;;;;;;10.32;7.35;;;11.10;68.10;;;;;;5048365;28;20044;-75
2022/12/12 13:00:58;;;;;;;14.55;7.30;;;11.00;68.10;;;;;;5030289;28;20046;-73
2022/12/12 13:03:30;;;;;;;9.60;7.10;;;10.90;68.50;;;;;;5054484;28;20036;-74
2022/12/12 13:06:01;;;;;;;11.40;7.10;;;10.80;68.60;;;;;;5064572;28;20037;-74
2022/12/12 13:08:27;;;;;;;10.30;6.85;;;10.70;68.90;;;;;;5069190;28;20033;-76
2022/12/12 13:11:06;;;;;;;8.52;6.22;;;10.60;69.10;;;;;;5066578;28;20075;-76
2022/12/12 13:13:38;;;;;;;8.75;6.10;;;10.50;69.10;;;;;;5059282;28;20037;-76
2022/12/12 13:16:26;;;;;;;10.00;6.60;;;10.40;69.30;;;;;;5052381;28;20064;-77
2022/12/12 13:19:34;;;;;;;13.02;6.18;;;10.30;69.70;;;;;;5048712;28;20538;-75
2022/12/12 13:22:09;;;;;;;11.13;7.60;;;10.30;70.30;;;;;;5041181;28;20069;-75
2022/12/12 13:24:41;;;;;;;11.13;7.32;;;10.40;71.40;;;;;;5037570;28;20044;-74
2022/12/12 13:27:32;;;;;;;10.02;6.63;;;10.40;71.70;;;;;;5044817;28;20385;-73